createdAt,value
2022-09-25T00:01:17.352Z,97.50
2022-09-25T00:03:45.029Z,97.66
2022-09-25T00:06:21.793Z,97.67
2022-09-25T00:08:50.099Z,97.41
2022-09-25T00:11:28.594Z,97.44
2022-09-25T00:13:57.084Z,97.11
2022-09-25T00:16:27.044Z,97.05
2022-09-25T00:19:13.519Z,97.25
2022-09-25T00:21:41.216Z,97.10
2022-09-25T00:24:10.719Z,97.16
2022-09-25T00:26:41.034Z,97.12
2022-09-25T00:29:10.183Z,97.50
2022-09-25T00:31:37.771Z,97.66
2022-09-25T00:34:06.781Z,97.49
2022-09-25T00:36:35.227Z,97.68
2022-09-25T00:39:03.455Z,97.43
2022-09-25T00:41:33.043Z,97.34
2022-09-25T00:44:02.746Z,97.34
2022-09-25T00:46:41.982Z,97.33
2022-09-25T00:49:27.995Z,97.52
2022-09-25T00:52:04.392Z,97.74
2022-09-25T00:54:48.650Z,97.47
2022-09-25T00:57:20.767Z,97.84
2022-09-25T00:59:53.838Z,97.92
2022-09-25T01:02:35.911Z,97.54
2022-09-25T01:05:07.287Z,97.85
2022-09-25T01:07:38.212Z,97.75
2022-09-25T01:10:09.133Z,97.80
2022-09-25T01:12:40.750Z,97.72
2022-09-25T01:15:11.245Z,97.62
2022-09-25T01:18:10.867Z,97.60
2022-09-25T01:21:11.538Z,98.11
2022-09-25T01:23:57.734Z,97.88
2022-09-25T01:26:50.082Z,98.04
2022-09-25T01:29:28.521Z,98.27
2022-09-25T01:32:04.308Z,97.92
2022-09-25T01:34:41.209Z,98.08
2022-09-25T01:37:26.046Z,98.23
2022-09-25T01:40:07.006Z,98.18
2022-09-25T01:42:43.786Z,98.12
2022-09-25T01:45:21.115Z,98.25
2022-09-25T01:47:51.728Z,98.26
2022-09-25T01:50:30.824Z,98.41
2022-09-25T01:53:03.113Z,98.56
2022-09-25T01:55:49.684Z,98.74
2022-09-25T01:58:30.989Z,99.01
2022-09-25T02:01:05.936Z,98.71
2022-09-25T02:03:40.953Z,98.60
2022-09-25T02:06:11.830Z,99.22
2022-09-25T02:08:46.147Z,99.13
2022-09-25T02:11:15.357Z,99.11
2022-09-25T02:14:07.651Z,99.05
2022-09-25T02:16:45.064Z,98.91
2022-09-25T02:19:35.607Z,98.69
2022-09-25T02:22:11.521Z,98.70
2022-09-25T02:24:44.862Z,98.82
2022-09-25T02:27:12.498Z,99.01
2022-09-25T02:29:40.159Z,98.87
2022-09-25T02:32:13.361Z,98.96
2022-09-25T02:34:41.525Z,98.95
2022-09-25T02:37:17.454Z,99.13
2022-09-25T02:39:53.874Z,99.14
2022-09-25T02:42:28.459Z,99.08
2022-09-25T02:45:17.254Z,98.34
2022-09-25T02:48:12.267Z,98.91
2022-09-25T02:50:55.093Z,99.01
2022-09-25T02:53:44.331Z,99.19
2022-09-25T02:56:35.055Z,99.47
2022-09-25T02:59:08.758Z,99.35
2022-09-25T03:01:40.511Z,99.84
2022-09-25T03:04:09.612Z,99.66
2022-09-25T03:06:39.684Z,99.98
2022-09-25T03:09:10.136Z,99.84
2022-09-25T03:11:43.337Z,99.77
2022-09-25T03:14:11.664Z,100.00
2022-09-25T03:16:52.568Z,100.00
2022-09-25T03:19:23.869Z,100.00
2022-09-25T03:21:52.188Z,99.98
2022-09-25T03:24:19.826Z,100.00
2022-09-25T03:26:47.532Z,100.00
2022-09-25T03:29:16.106Z,100.00
2022-09-25T03:31:44.329Z,99.99
2022-09-25T03:34:14.315Z,99.86
2022-09-25T03:36:42.750Z,99.97
2022-09-25T03:39:11.940Z,99.94
2022-09-25T03:41:39.593Z,99.74
2022-09-25T03:44:07.256Z,99.79
2022-09-25T03:46:36.514Z,99.76
2022-09-25T03:49:05.224Z,99.74
2022-09-25T03:51:34.025Z,99.65
2022-09-25T03:54:01.667Z,99.71
2022-09-25T03:56:30.828Z,99.59
2022-09-25T03:58:58.914Z,99.49
2022-09-25T04:01:28.665Z,99.44
2022-09-25T04:03:56.533Z,99.47
2022-09-25T04:06:26.131Z,99.34
2022-09-25T04:08:54.820Z,99.16
2022-09-25T04:11:25.342Z,98.96
2022-09-25T04:13:53.708Z,98.87
2022-09-25T04:16:24.781Z,98.92
2022-09-25T04:18:55.401Z,98.78
2022-09-25T04:21:23.059Z,98.89
2022-09-25T04:24:09.190Z,98.74
2022-09-25T04:26:37.036Z,98.78
2022-09-25T04:29:04.987Z,98.84
2022-09-25T04:31:33.291Z,98.79
2022-09-25T04:34:01.072Z,98.93
2022-09-25T04:36:28.737Z,99.00
2022-09-25T04:38:56.360Z,99.04
2022-09-25T04:41:24.023Z,98.87
2022-09-25T04:43:51.616Z,99.10
2022-09-25T04:46:22.462Z,98.97
2022-09-25T04:48:51.162Z,99.04
2022-09-25T04:51:19.224Z,99.30
2022-09-25T04:53:48.497Z,99.27
2022-09-25T04:56:16.960Z,99.11
2022-09-25T04:58:47.226Z,99.60
2022-09-25T05:01:15.052Z,99.41
2022-09-25T05:03:42.961Z,99.41
2022-09-25T05:06:11.000Z,99.30
2022-09-25T05:08:38.580Z,99.53
2022-09-25T05:11:06.329Z,99.50
2022-09-25T05:13:33.899Z,99.47
2022-09-25T05:16:01.794Z,99.48
2022-09-25T05:18:29.519Z,99.43
2022-09-25T05:20:57.683Z,99.43
2022-09-25T05:23:25.332Z,99.42
2022-09-25T05:25:59.199Z,99.29
2022-09-25T05:28:26.887Z,99.39
2022-09-25T05:30:54.602Z,99.51
2022-09-25T05:33:22.486Z,99.46
2022-09-25T05:35:50.282Z,99.29
2022-09-25T05:38:17.991Z,99.19
2022-09-25T05:40:46.052Z,99.31
2022-09-25T05:43:13.888Z,99.31
2022-09-25T05:45:41.575Z,99.25
2022-09-25T05:48:10.381Z,99.42
2022-09-25T05:50:38.327Z,99.42
2022-09-25T05:53:07.023Z,99.39
2022-09-25T05:55:34.823Z,99.55
2022-09-25T05:58:05.895Z,99.52
2022-09-25T06:00:34.165Z,99.59
2022-09-25T06:03:02.927Z,99.72
2022-09-25T06:05:31.221Z,99.73
2022-09-25T06:07:58.895Z,99.93
2022-09-25T06:10:27.858Z,99.67
2022-09-25T06:13:03.871Z,99.62
2022-09-25T06:15:37.969Z,99.75
2022-09-25T06:18:07.331Z,99.78
2022-09-25T06:20:35.711Z,100.00
2022-09-25T06:23:04.043Z,99.85
2022-09-25T06:25:33.653Z,99.69
2022-09-25T06:28:02.372Z,99.91
2022-09-25T06:30:35.400Z,99.77
2022-09-25T06:33:11.959Z,99.84
2022-09-25T06:35:48.224Z,99.61
2022-09-25T06:38:17.890Z,99.56
2022-09-25T06:40:45.628Z,99.29
2022-09-25T06:43:17.693Z,99.62
2022-09-25T06:45:45.493Z,99.50
2022-09-25T06:48:15.131Z,99.31
2022-09-25T06:50:54.354Z,99.35
2022-09-25T06:53:23.685Z,99.00
2022-09-25T06:55:51.838Z,98.75
2022-09-25T06:58:24.122Z,99.24
2022-09-25T07:00:53.615Z,99.16
2022-09-25T07:03:40.530Z,99.02
2022-09-25T07:06:11.866Z,98.79
2022-09-25T07:08:41.050Z,98.57
2022-09-25T07:11:09.176Z,99.01
2022-09-25T07:13:37.910Z,98.80
2022-09-25T07:16:07.893Z,98.41
2022-09-25T07:18:35.819Z,98.73
2022-09-25T07:21:05.742Z,98.41
2022-09-25T07:23:34.835Z,98.72
2022-09-25T07:26:10.595Z,98.23
2022-09-25T07:28:39.590Z,97.62
2022-09-25T07:31:20.451Z,97.11
2022-09-25T07:33:49.056Z,97.14
2022-09-25T07:36:18.715Z,96.78
2022-09-25T07:38:53.453Z,96.99
2022-09-25T07:41:23.775Z,96.13
2022-09-25T07:46:47.021Z,95.63
2022-09-25T07:49:15.231Z,95.13
2022-09-25T07:51:42.917Z,95.62
2022-09-25T07:54:10.527Z,95.81
2022-09-25T07:56:39.317Z,95.16
2022-09-25T07:59:07.129Z,94.90
2022-09-25T08:01:37.188Z,94.89
2022-09-25T08:04:08.746Z,94.33
2022-09-25T08:06:37.340Z,93.74
2022-09-25T08:09:10.150Z,94.07
2022-09-25T08:11:38.912Z,93.55
2022-09-25T08:14:06.722Z,93.69
2022-09-25T08:16:34.345Z,93.50
2022-09-25T08:19:02.047Z,92.72
2022-09-25T08:21:29.759Z,92.31
2022-09-25T08:23:58.109Z,91.92
2022-09-25T08:26:25.981Z,92.05
2022-09-25T08:28:53.597Z,92.26
2022-09-25T08:31:21.657Z,91.79
2022-09-25T08:33:51.251Z,91.39
2022-09-25T08:36:19.562Z,91.17
2022-09-25T08:38:47.806Z,91.28
2022-09-25T08:41:33.274Z,90.91
2022-09-25T08:44:06.294Z,91.17
2022-09-25T08:46:58.144Z,90.96
2022-09-25T08:49:29.638Z,90.84
2022-09-25T08:52:02.964Z,90.34
2022-09-25T08:54:33.069Z,89.79
2022-09-25T08:57:09.950Z,89.48
2022-09-25T08:59:48.909Z,89.44
2022-09-25T09:02:37.614Z,89.36
2022-09-25T09:05:08.242Z,89.32
2022-09-25T09:07:45.723Z,88.81
2022-09-25T09:10:31.505Z,89.25
2022-09-25T09:13:07.662Z,89.26
2022-09-25T09:15:42.014Z,89.32
2022-09-25T09:18:30.465Z,88.38
2022-09-25T09:21:02.447Z,88.60
2022-09-25T09:23:40.212Z,88.27
2022-09-25T09:26:18.043Z,87.65
2022-09-25T09:29:19.110Z,87.46
2022-09-25T09:32:17.489Z,88.72
2022-09-25T09:35:05.686Z,87.65
2022-09-25T09:37:47.063Z,87.52
2022-09-25T09:40:32.928Z,86.91
2022-09-25T09:43:35.775Z,87.85
2022-09-25T09:46:15.270Z,87.69
2022-09-25T09:48:54.402Z,87.47
2022-09-25T09:51:31.905Z,87.59
2022-09-25T09:54:05.947Z,87.44
2022-09-25T09:56:36.586Z,86.79
2022-09-25T09:59:30.828Z,86.85
2022-09-25T10:02:14.153Z,85.96
2022-09-25T10:04:43.873Z,86.16
2022-09-25T10:07:19.384Z,86.41
2022-09-25T10:09:50.120Z,85.70
2022-09-25T10:12:26.930Z,85.53
2022-09-25T10:14:54.983Z,85.53
2022-09-25T10:17:25.262Z,84.05
2022-09-25T10:19:56.646Z,84.79
2022-09-25T10:22:30.325Z,84.34
2022-09-25T10:25:03.356Z,83.78
2022-09-25T10:27:49.172Z,83.61
2022-09-25T10:30:22.931Z,83.36
2022-09-25T10:33:19.602Z,83.23
2022-09-25T10:35:47.944Z,83.24
2022-09-25T10:38:46.387Z,83.40
2022-09-25T10:41:14.964Z,82.34
2022-09-25T10:43:51.557Z,82.40
2022-09-25T10:46:47.922Z,81.74
2022-09-25T10:49:40.982Z,81.84
2022-09-25T10:52:11.486Z,81.81
2022-09-25T10:54:44.857Z,81.71
2022-09-25T10:57:39.275Z,80.94
2022-09-25T11:00:25.369Z,81.73
2022-09-25T11:02:57.557Z,80.49
2022-09-25T11:05:34.842Z,81.11
2022-09-25T11:08:07.867Z,80.61
2022-09-25T11:10:46.586Z,81.50
2022-09-25T11:13:25.413Z,81.21
2022-09-25T11:15:57.787Z,80.80
2022-09-25T11:18:52.852Z,81.23
2022-09-25T11:21:27.957Z,81.16
2022-09-25T11:24:17.012Z,81.67
2022-09-25T11:26:52.830Z,80.40
2022-09-25T11:29:52.110Z,80.12
2022-09-25T11:32:30.371Z,80.49
2022-09-25T11:35:41.250Z,81.09
2022-09-25T11:38:14.728Z,81.49
2022-09-25T11:41:13.516Z,81.03
2022-09-25T11:43:58.476Z,81.63
2022-09-25T11:46:30.214Z,81.73
2022-09-25T11:49:12.607Z,82.26
2022-09-25T11:51:53.135Z,82.24
2022-09-25T11:54:49.702Z,81.50
2022-09-25T11:57:30.705Z,81.85
2022-09-25T12:00:15.567Z,82.18
2022-09-25T12:02:56.218Z,81.87
2022-09-25T12:05:41.661Z,81.79
2022-09-25T12:08:33.991Z,81.48
2022-09-25T12:11:22.321Z,80.53
2022-09-25T12:14:08.954Z,80.61
2022-09-25T12:16:43.398Z,78.00
2022-09-25T12:19:41.878Z,78.34
2022-09-25T12:22:39.614Z,78.49
2022-09-25T12:25:13.004Z,78.33
2022-09-25T12:27:57.822Z,77.51
2022-09-25T12:30:34.322Z,78.53
2022-09-25T12:33:38.320Z,78.70
2022-09-25T12:36:06.073Z,77.71
2022-09-25T12:38:36.333Z,78.00
2022-09-25T12:41:29.793Z,78.20
2022-09-25T12:44:07.184Z,76.81
2022-09-25T12:46:50.854Z,76.98
2022-09-25T12:49:27.180Z,77.04
2022-09-25T12:51:58.778Z,76.55
2022-09-25T12:54:33.674Z,76.12
2022-09-25T12:57:20.055Z,74.53
2022-09-25T12:59:54.425Z,75.68
2022-09-25T13:02:37.544Z,74.75
2022-09-25T13:05:07.933Z,75.82
2022-09-25T13:07:54.359Z,76.13
2022-09-25T13:10:38.215Z,76.12
2022-09-25T13:13:13.208Z,76.58
2022-09-25T13:15:43.928Z,76.42
2022-09-25T13:18:18.499Z,75.92
2022-09-25T13:20:57.561Z,76.16
2022-09-25T13:23:28.282Z,74.58
2022-09-25T13:26:02.873Z,74.10
2022-09-25T13:28:34.357Z,74.56
2022-09-25T13:31:12.366Z,74.37
2022-09-25T13:33:58.435Z,74.17
2022-09-25T13:36:26.433Z,73.71
2022-09-25T13:39:18.124Z,74.00
2022-09-25T13:42:03.684Z,73.27
2022-09-25T13:44:51.167Z,73.18
2022-09-25T13:47:34.248Z,72.46
2022-09-25T13:50:26.630Z,73.49
2022-09-25T13:53:18.722Z,72.58
2022-09-25T13:55:49.559Z,73.18
2022-09-25T13:58:24.023Z,73.78
2022-09-25T14:00:54.622Z,73.17
2022-09-25T14:03:38.217Z,75.04
2022-09-25T14:06:11.223Z,74.05
2022-09-25T14:08:42.727Z,73.82
2022-09-25T14:11:16.620Z,73.57
2022-09-25T14:13:47.459Z,73.50
2022-09-25T14:16:31.339Z,73.81
2022-09-25T14:19:02.049Z,72.80
2022-09-25T14:21:32.108Z,73.62
2022-09-25T14:24:14.327Z,73.36
2022-09-25T14:26:47.059Z,71.66
2022-09-25T14:29:20.798Z,71.84
2022-09-25T14:32:50.430Z,72.87
2022-09-25T14:35:31.154Z,72.68
2022-09-25T14:38:08.574Z,72.65
2022-09-25T14:40:51.750Z,73.08
2022-09-25T14:43:28.537Z,72.74
2022-09-25T14:46:12.585Z,72.56
2022-09-25T14:48:48.683Z,72.42
2022-09-25T14:51:25.664Z,72.51
2022-09-25T14:53:58.822Z,72.33
2022-09-25T14:56:28.734Z,72.78
2022-09-25T14:58:59.828Z,72.32
2022-09-25T15:01:34.362Z,72.70
2022-09-25T15:04:10.186Z,72.70
2022-09-25T15:06:40.487Z,73.14
2022-09-25T15:09:38.999Z,73.54
2022-09-25T15:12:25.069Z,72.53
2022-09-25T15:15:06.700Z,72.96
2022-09-25T15:17:58.960Z,73.30
2022-09-25T15:20:32.301Z,73.33
2022-09-25T15:23:05.184Z,71.99
2022-09-25T15:25:40.875Z,72.44
2022-09-25T15:28:10.281Z,71.37
2022-09-25T15:30:42.842Z,71.47
2022-09-25T15:33:24.087Z,72.25
2022-09-25T15:35:59.255Z,72.50
2022-09-25T15:38:35.615Z,71.31
2022-09-25T15:41:07.184Z,69.23
2022-09-25T15:43:35.145Z,69.08
2022-09-25T15:46:08.784Z,69.85
2022-09-25T15:48:41.511Z,70.18
2022-09-25T15:51:20.663Z,69.96
2022-09-25T15:54:00.441Z,70.46
2022-09-25T15:56:56.363Z,70.84
2022-09-25T16:00:05.656Z,71.35
2022-09-25T16:02:55.878Z,71.90
2022-09-25T16:05:34.226Z,72.98
2022-09-25T16:08:26.360Z,73.72
2022-09-25T16:11:17.227Z,74.36
2022-09-25T16:13:49.622Z,75.44
2022-09-25T16:16:31.642Z,75.94
2022-09-25T16:19:01.364Z,77.04
2022-09-25T16:21:34.890Z,78.13
2022-09-25T16:24:07.709Z,78.05
2022-09-25T16:26:43.182Z,78.96
2022-09-25T16:29:13.710Z,79.64
2022-09-25T16:31:43.608Z,80.29
2022-09-25T16:34:20.257Z,80.77
2022-09-25T16:36:49.681Z,82.01
2022-09-25T16:39:23.517Z,81.91
2022-09-25T16:41:51.344Z,83.09
2022-09-25T16:44:23.401Z,82.83
2022-09-25T16:46:54.104Z,82.96
2022-09-25T16:49:21.768Z,83.89
2022-09-25T16:51:51.563Z,84.12
2022-09-25T16:54:21.251Z,84.07
2022-09-25T16:56:49.908Z,84.18
2022-09-25T16:59:23.365Z,84.53
2022-09-25T17:01:56.798Z,85.27
2022-09-25T17:04:30.522Z,85.27
2022-09-25T17:06:59.690Z,85.83
2022-09-25T17:09:29.843Z,85.85
2022-09-25T17:12:06.247Z,86.31
2022-09-25T17:14:35.219Z,86.88
2022-09-25T17:17:03.155Z,86.91
2022-09-25T17:19:31.160Z,87.56
2022-09-25T17:21:59.157Z,87.93
2022-09-25T17:24:28.719Z,88.06
2022-09-25T17:26:56.558Z,88.37
2022-09-25T17:29:24.322Z,88.56
2022-09-25T17:31:52.012Z,89.35
2022-09-25T17:34:29.546Z,89.14
2022-09-25T17:36:57.588Z,90.15
2022-09-25T17:39:25.321Z,89.98
2022-09-25T17:41:53.309Z,90.27
2022-09-25T17:44:26.194Z,90.44
2022-09-25T17:46:56.760Z,90.55
2022-09-25T17:49:25.249Z,90.76
2022-09-25T17:51:53.210Z,91.06
2022-09-25T17:54:21.178Z,91.83
2022-09-25T17:56:49.551Z,92.23
2022-09-25T17:59:17.272Z,93.62
2022-09-25T18:01:44.969Z,93.47
2022-09-25T18:04:24.687Z,93.17
2022-09-25T18:06:53.159Z,94.39
2022-09-25T18:09:21.116Z,94.21
2022-09-25T18:11:48.878Z,93.98
2022-09-25T18:14:17.233Z,94.05
2022-09-25T18:16:46.151Z,95.15
2022-09-25T18:19:37.536Z,94.26
2022-09-25T18:22:18.593Z,94.67
2022-09-25T18:24:48.070Z,95.93
2022-09-25T18:27:16.967Z,95.79
2022-09-25T18:29:46.837Z,95.91
2022-09-25T18:32:15.088Z,95.61
2022-09-25T18:34:43.422Z,96.27
2022-09-25T18:37:11.447Z,96.24
2022-09-25T18:39:39.108Z,96.13
2022-09-25T18:42:06.856Z,96.26
2022-09-25T18:44:41.321Z,96.13
2022-09-25T18:47:10.170Z,96.68
2022-09-25T18:49:38.597Z,96.14
2022-09-25T18:52:06.885Z,96.36
2022-09-25T18:54:35.236Z,96.16
2022-09-25T18:57:03.056Z,95.80
2022-09-25T18:59:31.122Z,96.18
2022-09-25T19:01:58.937Z,95.92
2022-09-25T19:04:27.241Z,96.03
2022-09-25T19:06:54.932Z,95.61
2022-09-25T19:09:28.349Z,95.58
2022-09-25T19:11:56.553Z,95.41
2022-09-25T19:14:25.175Z,95.39
2022-09-25T19:16:56.406Z,95.21
2022-09-25T19:19:24.027Z,95.06
2022-09-25T19:21:51.693Z,94.59
2022-09-25T19:24:19.432Z,94.28
2022-09-25T19:26:47.523Z,93.99
2022-09-25T19:29:15.262Z,92.66
2022-09-25T19:31:43.128Z,92.28
2022-09-25T19:34:11.314Z,92.42
2022-09-25T19:36:39.615Z,92.17
2022-09-25T19:39:07.298Z,91.78
2022-09-25T19:41:37.184Z,92.04
2022-09-25T19:44:13.697Z,92.05
2022-09-25T19:46:45.992Z,92.08
2022-09-25T19:49:15.570Z,92.42
2022-09-25T19:51:44.422Z,92.29
2022-09-25T19:54:14.486Z,92.32
2022-09-25T19:56:43.441Z,92.24
2022-09-25T19:59:16.507Z,92.32
2022-09-25T20:01:45.016Z,92.48
2022-09-25T20:04:18.317Z,92.53
2022-09-25T20:06:47.150Z,92.48
2022-09-25T20:09:15.558Z,92.37
2022-09-25T20:11:43.361Z,92.48
2022-09-25T20:14:11.141Z,92.41
2022-09-25T20:16:38.782Z,92.36
2022-09-25T20:19:07.705Z,92.36
2022-09-25T20:21:38.273Z,92.39
2022-09-25T20:24:08.114Z,92.79
2022-09-25T20:26:37.490Z,92.80
2022-09-25T20:29:13.521Z,92.58
2022-09-25T20:31:43.720Z,92.54
2022-09-25T20:34:22.862Z,92.57
2022-09-25T20:36:50.709Z,92.43
2022-09-25T20:39:21.373Z,92.45
2022-09-25T20:41:50.249Z,92.51
2022-09-25T20:44:18.301Z,92.54
2022-09-25T20:46:46.029Z,92.22
2022-09-25T20:49:14.314Z,92.35
2022-09-25T20:51:42.558Z,92.33
2022-09-25T20:54:11.472Z,92.28
2022-09-25T20:56:44.772Z,92.33
2022-09-25T20:59:13.341Z,92.47
2022-09-25T21:01:42.472Z,92.48
2022-09-25T21:04:11.750Z,92.26
2022-09-25T21:06:41.316Z,92.39
2022-09-25T21:09:20.499Z,92.51
2022-09-25T21:11:48.566Z,92.31
2022-09-25T21:14:34.808Z,92.21
2022-09-25T21:17:02.647Z,92.56
2022-09-25T21:19:30.317Z,92.45
2022-09-25T21:21:57.939Z,92.43
2022-09-25T21:24:25.612Z,92.94
2022-09-25T21:26:53.404Z,92.62
2022-09-25T21:29:21.200Z,92.62
2022-09-25T21:31:50.579Z,92.61
2022-09-25T21:34:20.186Z,92.98
2022-09-25T21:36:48.889Z,92.81
2022-09-25T21:39:16.617Z,92.94
2022-09-25T21:41:44.691Z,92.97
2022-09-25T21:44:15.854Z,92.90
2022-09-25T21:46:43.684Z,92.92
2022-09-25T21:49:17.801Z,92.65
2022-09-25T21:51:46.642Z,92.71
2022-09-25T21:54:16.242Z,92.69
2022-09-25T21:56:45.597Z,92.76
2022-09-25T21:59:13.840Z,92.72
2022-09-25T22:01:42.297Z,92.86
2022-09-25T22:04:16.927Z,92.80
2022-09-25T22:06:47.289Z,93.12
2022-09-25T22:09:22.014Z,92.85
2022-09-25T22:11:50.234Z,92.86
2022-09-25T22:14:19.343Z,92.71
2022-09-25T22:16:49.572Z,92.64
2022-09-25T22:19:18.671Z,92.54
2022-09-25T22:21:48.076Z,92.52
2022-09-25T22:24:16.593Z,92.53
2022-09-25T22:26:46.092Z,92.35
2022-09-25T22:29:17.710Z,92.51
2022-09-25T22:31:45.780Z,92.35
2022-09-25T22:34:25.945Z,92.31
2022-09-25T22:36:59.003Z,92.38
2022-09-25T22:39:28.249Z,92.17
2022-09-25T22:41:57.066Z,92.33
2022-09-25T22:44:26.061Z,92.18
2022-09-25T22:46:53.969Z,92.17
2022-09-25T22:49:21.648Z,92.21
2022-09-25T22:51:49.319Z,92.23
2022-09-25T22:54:16.989Z,92.21
2022-09-25T22:56:45.287Z,92.19
2022-09-25T22:59:17.234Z,92.12
2022-09-25T23:01:53.651Z,92.22
2022-09-25T23:04:23.875Z,92.22
2022-09-25T23:06:52.104Z,92.17
2022-09-25T23:09:23.368Z,92.40
2022-09-25T23:11:50.949Z,92.41
2022-09-25T23:14:21.968Z,92.26
2022-09-25T23:16:51.206Z,92.37
2022-09-25T23:19:19.526Z,92.52
2022-09-25T23:21:47.328Z,92.35
2022-09-25T23:24:18.034Z,92.18
2022-09-25T23:26:46.745Z,92.33
2022-09-25T23:29:16.295Z,92.42
2022-09-25T23:31:45.139Z,92.62
2022-09-25T23:34:13.556Z,92.61
2022-09-25T23:36:41.833Z,92.69
2022-09-25T23:39:10.055Z,92.69
2022-09-25T23:41:40.009Z,92.65
2022-09-25T23:44:10.144Z,92.76
2022-09-25T23:46:40.880Z,92.56
2022-09-25T23:49:09.450Z,92.56
2022-09-25T23:51:37.771Z,92.43
2022-09-25T23:54:05.460Z,92.66
2022-09-25T23:56:35.748Z,92.46
2022-09-25T23:59:04.390Z,92.62
